createdAt,value
2023-10-20T00:01:56.821Z,95828.38
2023-10-20T00:04:45.448Z,95829.41
2023-10-20T00:07:33.373Z,95822.66
2023-10-20T00:10:20.898Z,95812.47
2023-10-20T00:13:09.313Z,95808.41
2023-10-20T00:15:56.942Z,95815.56
2023-10-20T00:18:45.874Z,95811.50
2023-10-20T00:21:33.585Z,95805.63
2023-10-20T00:24:22.570Z,95799.09
2023-10-20T00:27:10.538Z,95791.72
2023-10-20T00:29:58.154Z,95795.44
2023-10-20T00:32:46.598Z,95799.09
2023-10-20T00:35:36.477Z,95796.22
2023-10-20T00:38:24.327Z,95783.38
2023-10-20T00:41:11.978Z,95768.69
2023-10-20T00:43:59.444Z,95775.84
2023-10-20T00:46:47.102Z,95775.25
2023-10-20T00:49:35.745Z,95769.34
2023-10-20T00:52:26.920Z,95765.28
2023-10-20T00:55:16.532Z,95772.22
2023-10-20T00:58:05.758Z,95768.53
2023-10-20T01:00:53.279Z,95764.47
2023-10-20T01:03:41.028Z,95767.78
2023-10-20T01:06:29.050Z,95760.84
2023-10-20T01:09:26.674Z,95749.84
2023-10-20T01:12:14.643Z,95758.84
2023-10-20T01:15:03.340Z,95751.09
2023-10-20T01:17:53.181Z,95751.09
2023-10-20T01:20:41.299Z,95756.78
2023-10-20T01:23:29.150Z,95764.09
2023-10-20T01:26:18.855Z,95760.19
2023-10-20T01:29:10.727Z,95757.75
2023-10-20T01:31:58.482Z,95746.97
2023-10-20T01:34:46.242Z,95747.19
2023-10-20T01:37:33.932Z,95735.97
2023-10-20T01:40:22.997Z,95727.19
2023-10-20T01:43:12.061Z,95731.44
2023-10-20T01:45:59.902Z,95727.78
2023-10-20T01:48:47.283Z,95725.56
2023-10-20T01:51:35.933Z,95725.13
2023-10-20T01:54:24.232Z,95728.56
2023-10-20T01:57:12.069Z,95726.53
2023-10-20T02:00:02.976Z,95730.59
2023-10-20T02:02:50.581Z,95719.16
2023-10-20T02:05:38.664Z,95711.41
2023-10-20T02:08:26.340Z,95704.44
2023-10-20T02:11:13.919Z,95707.72
2023-10-20T02:14:01.801Z,95706.44
2023-10-20T02:16:50.804Z,95702.41
2023-10-20T02:19:38.950Z,95695.25
2023-10-20T02:22:26.437Z,95688.06
2023-10-20T02:25:16.703Z,95693.38
2023-10-20T02:28:04.799Z,95693.38
2023-10-20T02:30:52.602Z,95685.63
2023-10-20T02:33:42.017Z,95678.28
2023-10-20T02:36:29.526Z,95673.78
2023-10-20T02:39:19.257Z,95662.13
2023-10-20T02:42:07.322Z,95663.72
2023-10-20T02:44:54.937Z,95659.47
2023-10-20T02:47:42.563Z,95657.84
2023-10-20T02:50:31.666Z,95648.00
2023-10-20T02:53:19.524Z,95638.19
2023-10-20T02:56:13.721Z,95631.28
2023-10-20T02:59:01.616Z,95623.31
2023-10-20T03:01:49.385Z,95619.59
2023-10-20T03:04:37.494Z,95623.09
2023-10-20T03:07:28.511Z,95614.50
2023-10-20T03:10:17.557Z,95616.13
2023-10-20T03:13:09.172Z,95606.75
2023-10-20T03:15:57.042Z,95594.31
2023-10-20T03:18:44.562Z,95577.53
2023-10-20T03:21:32.898Z,95566.31
2023-10-20T03:24:21.995Z,95575.94
2023-10-20T03:27:10.104Z,95573.50
2023-10-20T03:29:57.913Z,95552.03
2023-10-20T03:32:48.019Z,95537.31
2023-10-20T03:35:37.581Z,95528.56
2023-10-20T03:38:25.280Z,95525.09
2023-10-20T03:41:15.810Z,95519.78
2023-10-20T03:44:04.111Z,95502.00
2023-10-20T03:46:57.790Z,95490.56
2023-10-20T03:49:46.574Z,95475.66
2023-10-20T03:52:34.139Z,95471.97
2023-10-20T03:55:22.881Z,95481.75
2023-10-20T03:58:15.218Z,95483.84
2023-10-20T04:01:03.716Z,95483.84
2023-10-20T04:03:52.871Z,95485.47
2023-10-20T04:06:41.635Z,95489.16
2023-10-20T04:09:30.357Z,95495.03
2023-10-20T04:12:18.388Z,95492.38
2023-10-20T04:15:13.557Z,95491.59
2023-10-20T04:18:01.160Z,95488.28
2023-10-20T04:20:50.307Z,95487.44
2023-10-20T04:23:39.494Z,95472.19
2023-10-20T04:26:28.164Z,95468.94
2023-10-20T04:29:35.202Z,95466.66
2023-10-20T04:32:50.572Z,95458.91
2023-10-20T04:35:55.451Z,95448.28
2023-10-20T04:39:00.456Z,95441.34
2023-10-20T04:42:01.800Z,95430.28
2023-10-20T04:45:20.369Z,95426.56
2023-10-20T04:48:21.491Z,95419.19
2023-10-20T04:51:19.552Z,95403.25
2023-10-20T04:54:11.274Z,95403.72
2023-10-20T04:57:32.635Z,95403.25
2023-10-20T05:00:36.868Z,95410.19
2023-10-20T05:03:36.177Z,95404.06
2023-10-20T05:06:26.867Z,95389.38
2023-10-20T05:09:18.911Z,95381.06
2023-10-20T05:12:07.455Z,95382.09
2023-10-20T05:14:55.812Z,95377.00
2023-10-20T05:17:43.763Z,95370.66
2023-10-20T05:20:33.175Z,95363.28
2023-10-20T05:23:20.784Z,95364.88
2023-10-20T05:26:10.466Z,95375.06
2023-10-20T05:28:58.096Z,95371.38
2023-10-20T05:31:45.997Z,95368.28
2023-10-20T05:34:34.009Z,95363.97
2023-10-20T05:37:23.625Z,95365.63
2023-10-20T05:40:12.515Z,95357.44
2023-10-20T05:43:01.068Z,95344.94
2023-10-20T05:45:48.551Z,95344.38
2023-10-20T05:48:35.996Z,95335.34
2023-10-20T05:51:23.952Z,95328.31
2023-10-20T05:54:12.927Z,95326.25
2023-10-20T05:57:00.836Z,95313.75
2023-10-20T05:59:48.645Z,95319.28
2023-10-20T06:02:37.038Z,95315.38
2023-10-20T06:05:25.164Z,95310.63
2023-10-20T06:08:12.741Z,95294.69
2023-10-20T06:11:07.581Z,95276.91
2023-10-20T06:13:54.986Z,95279.56
2023-10-20T06:16:43.471Z,95281.53
2023-10-20T06:19:32.527Z,95278.28
2023-10-20T06:22:20.461Z,95258.31
2023-10-20T06:25:13.307Z,95265.69
2023-10-20T06:28:02.548Z,95260.16
2023-10-20T06:30:51.816Z,95237.97
2023-10-20T06:33:39.689Z,95228.97
2023-10-20T06:36:27.672Z,95212.81
2023-10-20T06:39:16.146Z,95199.28
2023-10-20T06:42:04.288Z,95189.22
2023-10-20T06:44:53.781Z,95174.41
2023-10-20T06:47:41.804Z,95155.34
2023-10-20T06:50:29.600Z,95149.00
2023-10-20T06:53:17.415Z,95142.16
2023-10-20T06:56:15.166Z,95143.28
2023-10-20T06:59:04.495Z,95124.13
2023-10-20T07:01:57.365Z,95127.34
2023-10-20T07:04:45.577Z,95107.69
2023-10-20T07:07:33.419Z,95099.72
2023-10-20T07:10:23.530Z,95092.25
2023-10-20T07:13:12.938Z,95057.94
2023-10-20T07:16:01.787Z,95036.97
2023-10-20T07:18:51.294Z,95019.44
2023-10-20T07:21:38.896Z,95032.47
2023-10-20T07:24:28.024Z,95032.78
2023-10-20T07:27:16.350Z,95027.00
2023-10-20T07:30:07.963Z,95022.00
2023-10-20T07:32:55.827Z,95021.53
2023-10-20T07:35:45.492Z,95025.31
2023-10-20T07:38:33.467Z,95018.47
2023-10-20T07:41:21.165Z,95030.25
2023-10-20T07:44:10.276Z,95039.13
2023-10-20T07:46:57.922Z,95026.69
2023-10-20T07:49:46.504Z,95025.97
2023-10-20T07:52:36.487Z,95003.97
2023-10-20T07:55:24.026Z,94988.94
2023-10-20T07:58:11.830Z,94988.78
2023-10-20T08:01:00.164Z,94981.44
2023-10-20T08:03:49.434Z,94980.13
2023-10-20T08:06:37.770Z,94993.50
2023-10-20T08:09:27.417Z,94979.78
2023-10-20T08:12:15.066Z,94973.97
2023-10-20T08:15:04.125Z,94980.91
2023-10-20T08:17:54.033Z,94982.28
2023-10-20T08:20:42.527Z,94982.84
2023-10-20T08:23:30.516Z,94988.22
2023-10-20T08:26:21.128Z,94982.72
2023-10-20T08:29:12.439Z,94983.88
2023-10-20T08:32:00.509Z,95000.50
2023-10-20T08:34:48.456Z,95010.66
2023-10-20T08:37:36.957Z,95003.78
2023-10-20T08:40:24.622Z,94994.25
2023-10-20T08:43:14.461Z,94994.00
2023-10-20T08:46:03.537Z,94988.19
2023-10-20T08:48:52.133Z,94992.69
2023-10-20T08:51:40.608Z,94991.66
2023-10-20T08:54:28.801Z,94969.03
2023-10-20T08:57:16.754Z,94958.47
2023-10-20T09:00:08.519Z,94958.81
2023-10-20T09:03:01.146Z,94939.94
2023-10-20T09:05:49.098Z,94958.94
2023-10-20T09:08:37.361Z,94956.34
2023-10-20T09:11:31.894Z,94970.75
2023-10-20T09:14:19.944Z,94968.06
2023-10-20T09:17:10.984Z,94951.03
2023-10-20T09:20:07.812Z,94959.59
2023-10-20T09:22:55.627Z,94963.84
2023-10-20T09:25:45.548Z,94960.13
2023-10-20T09:28:35.720Z,94956.41
2023-10-20T09:31:26.995Z,94960.19
2023-10-20T09:34:16.652Z,94944.72
2023-10-20T09:37:04.385Z,94951.19
2023-10-20T09:39:56.682Z,94941.91
2023-10-20T09:43:15.005Z,94953.16
2023-10-20T09:46:30.675Z,94947.63
2023-10-20T09:49:23.190Z,94940.47
2023-10-20T09:52:12.039Z,94949.03
2023-10-20T09:55:02.516Z,94951.69
2023-10-20T09:57:51.441Z,94940.81
2023-10-20T10:00:39.007Z,94930.94
2023-10-20T10:03:31.109Z,94935.00
2023-10-20T10:06:20.797Z,94925.44
2023-10-20T10:09:09.498Z,94914.63
2023-10-20T10:11:57.551Z,94915.16
2023-10-20T10:14:56.915Z,94912.28
2023-10-20T10:17:50.341Z,94919.22
2023-10-20T10:20:47.052Z,94928.28
2023-10-20T10:23:36.128Z,94933.63
2023-10-20T10:26:31.230Z,94930.97
2023-10-20T10:29:20.399Z,94936.31
2023-10-20T10:32:14.711Z,94935.28
2023-10-20T10:35:05.202Z,94934.19
2023-10-20T10:37:54.522Z,94940.25
2023-10-20T10:40:49.398Z,94961.78
2023-10-20T10:43:38.254Z,94957.19
2023-10-20T10:46:36.139Z,94973.13
2023-10-20T10:49:23.649Z,94975.03
2023-10-20T10:52:11.212Z,95005.47
2023-10-20T10:54:59.254Z,95009.63
2023-10-20T10:57:48.972Z,94996.13
2023-10-20T11:00:38.207Z,94982.81
2023-10-20T11:03:26.738Z,95006.81
2023-10-20T11:06:15.179Z,95008.09
2023-10-20T11:09:03.492Z,95018.50
2023-10-20T11:11:52.859Z,95014.19
2023-10-20T11:14:42.443Z,95030.16
2023-10-20T11:17:30.622Z,95017.31
2023-10-20T11:20:21.920Z,95034.94
2023-10-20T11:23:12.367Z,95042.19
2023-10-20T11:26:00.203Z,95055.28
2023-10-20T11:28:47.824Z,95069.97
2023-10-20T11:31:38.720Z,95067.31
2023-10-20T11:34:27.386Z,95059.56
2023-10-20T11:37:16.386Z,95056.50
2023-10-20T11:40:05.532Z,95061.31
2023-10-20T11:42:54.212Z,95064.88
2023-10-20T11:45:42.208Z,95056.44
2023-10-20T11:48:31.015Z,95058.66
2023-10-20T11:51:18.985Z,95061.69
2023-10-20T11:54:07.643Z,95068.63
2023-10-20T11:56:55.403Z,95070.25
2023-10-20T11:59:43.073Z,95064.38
2023-10-20T12:02:31.370Z,95075.13
2023-10-20T12:05:20.585Z,95091.22
2023-10-20T12:08:08.667Z,95081.59
2023-10-20T12:10:56.447Z,95060.56
2023-10-20T12:13:48.030Z,95087.66
2023-10-20T12:16:35.476Z,95061.19
2023-10-20T12:19:23.242Z,95080.78
2023-10-20T12:22:13.217Z,95087.72
2023-10-20T12:25:01.174Z,95054.31
2023-10-20T12:27:48.943Z,95071.75
2023-10-20T12:30:36.969Z,95098.53
2023-10-20T12:33:27.760Z,95091.59
2023-10-20T12:36:17.422Z,95090.03
2023-10-20T12:39:08.283Z,95075.59
2023-10-20T12:41:57.009Z,95098.38
2023-10-20T12:44:44.819Z,95097.03
2023-10-20T12:47:34.155Z,95089.53
2023-10-20T12:50:22.418Z,95082.03
2023-10-20T12:53:10.861Z,95087.13
2023-10-20T12:56:00.295Z,95086.34
2023-10-20T12:58:47.907Z,95094.38
2023-10-20T13:01:36.303Z,95101.34
2023-10-20T13:04:25.369Z,95089.56
2023-10-20T13:07:15.030Z,95115.53
2023-10-20T13:10:05.837Z,95104.28
2023-10-20T13:12:56.016Z,95135.66
2023-10-20T13:15:47.446Z,95123.88
2023-10-20T13:18:35.570Z,95088.78
2023-10-20T13:21:27.592Z,95108.88
2023-10-20T13:24:15.212Z,95109.94
2023-10-20T13:27:02.887Z,95112.59
2023-10-20T13:29:51.960Z,95109.34
2023-10-20T13:32:40.016Z,95132.91
2023-10-20T13:35:27.865Z,95125.31
2023-10-20T13:38:18.900Z,95136.50
2023-10-20T13:41:19.872Z,95131.66
2023-10-20T13:44:09.278Z,95137.03
2023-10-20T13:46:58.293Z,95146.75
2023-10-20T13:49:46.297Z,95151.34
2023-10-20T13:52:34.341Z,95160.22
2023-10-20T13:55:21.847Z,95170.72
2023-10-20T13:58:09.672Z,95176.88
2023-10-20T14:00:57.893Z,95169.38
2023-10-20T14:03:47.124Z,95174.44
2023-10-20T14:06:36.144Z,95170.41
2023-10-20T14:09:24.176Z,95175.50
2023-10-20T14:12:12.142Z,95173.88
2023-10-20T14:15:00.837Z,95170.38
2023-10-20T14:17:49.093Z,95170.63
2023-10-20T14:20:40.420Z,95189.94
2023-10-20T14:23:29.734Z,95198.53
2023-10-20T14:26:17.361Z,95204.75
2023-10-20T14:29:05.730Z,95213.31
2023-10-20T14:31:53.934Z,95205.81
2023-10-20T14:34:41.905Z,95193.97
2023-10-20T14:37:31.821Z,95200.94
2023-10-20T14:40:20.116Z,95207.91
2023-10-20T14:43:08.125Z,95209.53
2023-10-20T14:45:59.323Z,95206.84
2023-10-20T14:48:49.606Z,95233.47
2023-10-20T14:51:37.189Z,95237.47
2023-10-20T14:54:28.869Z,95238.84
2023-10-20T14:57:18.224Z,95234.81
2023-10-20T15:00:10.827Z,95235.88
2023-10-20T15:02:59.275Z,95247.16
2023-10-20T15:05:47.183Z,95242.88
2023-10-20T15:08:35.585Z,95247.69
2023-10-20T15:11:24.931Z,95269.19
2023-10-20T15:14:12.861Z,95269.19
2023-10-20T15:17:00.678Z,95273.50
2023-10-20T15:19:48.250Z,95268.13
2023-10-20T15:22:35.797Z,95270.56
2023-10-20T15:25:23.523Z,95277.00
2023-10-20T15:28:12.962Z,95281.03
2023-10-20T15:31:00.918Z,95288.00
2023-10-20T15:33:48.897Z,95281.56
2023-10-20T15:36:52.443Z,95294.16
2023-10-20T15:39:50.923Z,95302.19
2023-10-20T15:42:33.431Z,95313.19
2023-10-20T15:45:21.409Z,95327.09
2023-10-20T15:48:13.484Z,95339.94
2023-10-20T15:53:56.118Z,95355.16
2023-10-20T15:56:53.157Z,95359.94
2023-10-20T15:59:47.163Z,95361.28
2023-10-20T16:02:35.459Z,95361.81
2023-10-20T16:05:25.038Z,95378.66
2023-10-20T16:08:13.267Z,95389.13
2023-10-20T16:11:01.064Z,95389.03
2023-10-20T16:13:49.846Z,95390.63
2023-10-20T16:16:41.044Z,95415.50
2023-10-20T16:19:29.595Z,95419.97
2023-10-20T16:22:17.504Z,95422.59
2023-10-20T16:25:07.975Z,95427.94
2023-10-20T16:27:58.583Z,95430.88
2023-10-20T16:30:53.698Z,95440.19
2023-10-20T16:33:47.939Z,95452.47
2023-10-20T16:36:36.373Z,95452.44
2023-10-20T16:39:28.023Z,95460.44
2023-10-20T16:42:17.051Z,95450.72
2023-10-20T16:45:08.531Z,95466.44
2023-10-20T16:48:00.645Z,95477.38
2023-10-20T16:51:04.975Z,95493.13
2023-10-20T16:53:53.063Z,95500.56
2023-10-20T16:56:44.382Z,95508.84
2023-10-20T16:59:34.347Z,95508.56
2023-10-20T17:02:25.756Z,95509.31
2023-10-20T17:05:16.050Z,95509.75
2023-10-20T17:08:05.539Z,95515.59
2023-10-20T17:10:55.982Z,95533.47
2023-10-20T17:13:47.826Z,95561.47
2023-10-20T17:16:44.978Z,95571.59
2023-10-20T17:19:35.108Z,95580.38
2023-10-20T17:22:25.554Z,95593.41
2023-10-20T17:25:14.789Z,95598.47
2023-10-20T17:28:02.613Z,95595.97
2023-10-20T17:30:55.538Z,95602.03
2023-10-20T17:33:49.411Z,95610.25
2023-10-20T17:36:42.922Z,95598.66
2023-10-20T17:39:30.861Z,95602.16
2023-10-20T17:42:24.287Z,95603.13
2023-10-20T17:45:12.975Z,95605.72
2023-10-20T17:48:04.339Z,95603.81
2023-10-20T17:51:00.278Z,95616.25
2023-10-20T17:53:49.674Z,95622.53
2023-10-20T17:56:38.066Z,95624.66
2023-10-20T17:59:27.891Z,95622.72
2023-10-20T18:02:18.502Z,95633.06
2023-10-20T18:05:07.829Z,95628.69
2023-10-20T18:07:56.293Z,95629.16
2023-10-20T18:10:48.786Z,95649.41
2023-10-20T18:13:40.797Z,95650.47
2023-10-20T18:16:33.282Z,95646.19
2023-10-20T18:19:23.539Z,95662.69
2023-10-20T18:22:15.556Z,95677.06
2023-10-20T18:25:04.154Z,95676.75
2023-10-20T18:27:51.708Z,95679.09
2023-10-20T18:30:39.288Z,95680.63
2023-10-20T18:33:30.308Z,95684.34
2023-10-20T18:36:17.914Z,95670.41
2023-10-20T18:39:05.648Z,95670.06
2023-10-20T18:41:53.728Z,95663.84
2023-10-20T18:44:41.303Z,95658.44
2023-10-20T18:47:29.260Z,95662.59
2023-10-20T18:50:18.297Z,95660.31
2023-10-20T18:53:06.011Z,95669.28
2023-10-20T18:55:53.678Z,95670.34
2023-10-20T18:58:41.184Z,95682.28
2023-10-20T19:01:28.737Z,95677.66
2023-10-20T19:04:16.357Z,95694.72
2023-10-20T19:07:06.008Z,95689.84
2023-10-20T19:09:55.162Z,95674.31
2023-10-20T19:12:42.708Z,95689.16
2023-10-20T19:15:30.444Z,95691.72
2023-10-20T19:18:18.304Z,95722.13
2023-10-20T19:21:08.055Z,95728.75
2023-10-20T19:23:57.072Z,95746.22
2023-10-20T19:26:45.214Z,95749.03
2023-10-20T19:29:33.227Z,95735.59
2023-10-20T19:32:22.670Z,95745.88
2023-10-20T19:35:11.806Z,95745.31
2023-10-20T19:38:00.048Z,95743.91
2023-10-20T19:40:49.507Z,95746.00
2023-10-20T19:43:37.010Z,95746.47
2023-10-20T19:46:24.514Z,95744.84
2023-10-20T19:49:12.699Z,95722.94
2023-10-20T19:52:00.650Z,95717.03
2023-10-20T19:54:48.292Z,95704.72
2023-10-20T19:57:37.018Z,95709.50
2023-10-20T20:00:25.198Z,95701.97
2023-10-20T20:03:13.291Z,95725.38
2023-10-20T20:06:08.942Z,95715.53
2023-10-20T20:08:56.905Z,95712.28
2023-10-20T20:11:44.516Z,95725.03
2023-10-20T20:14:33.521Z,95738.59
2023-10-20T20:17:21.187Z,95735.34
2023-10-20T20:20:10.381Z,95749.13
2023-10-20T20:22:58.135Z,95750.63
2023-10-20T20:25:45.608Z,95745.16
2023-10-20T20:28:34.039Z,95732.31
2023-10-20T20:31:22.885Z,95720.50
2023-10-20T20:34:10.943Z,95747.59
2023-10-20T20:36:59.370Z,95769.97
2023-10-20T20:39:46.993Z,95778.28
2023-10-20T20:42:34.972Z,95764.88
2023-10-20T20:45:22.649Z,95768.78
2023-10-20T20:48:12.052Z,95774.34
2023-10-20T20:50:59.852Z,95790.56
2023-10-20T20:53:47.777Z,95807.56
2023-10-20T20:56:35.665Z,95811.16
2023-10-20T20:59:23.319Z,95808.28
2023-10-20T21:02:12.350Z,95808.88
2023-10-20T21:05:01.389Z,95805.75
2023-10-20T21:07:49.117Z,95799.72
2023-10-20T21:10:36.677Z,95795.41
2023-10-20T21:13:24.326Z,95782.22
2023-10-20T21:16:13.982Z,95780.22
2023-10-20T21:19:03.078Z,95770.84
2023-10-20T21:21:51.846Z,95779.53
2023-10-20T21:24:39.858Z,95784.25
2023-10-20T21:27:29.341Z,95797.69
2023-10-20T21:30:16.996Z,95797.75
2023-10-20T21:33:05.222Z,95792.75
2023-10-20T21:35:52.884Z,95782.41
2023-10-20T21:38:42.103Z,95776.94
2023-10-20T21:41:29.907Z,95776.81
2023-10-20T21:44:17.408Z,95775.66
2023-10-20T21:47:05.353Z,95774.69
2023-10-20T21:49:53.218Z,95782.31
2023-10-20T21:52:42.282Z,95776.25
2023-10-20T21:55:31.138Z,95770.53
2023-10-20T21:58:19.091Z,95764.84
2023-10-20T22:01:08.057Z,95779.06
2023-10-20T22:03:55.919Z,95771.75
2023-10-20T22:06:43.709Z,95784.66
2023-10-20T22:09:41.741Z,95769.16
2023-10-20T22:12:39.540Z,95801.50
2023-10-20T22:15:27.426Z,95785.56
2023-10-20T22:18:15.587Z,95784.97
2023-10-20T22:21:03.512Z,95791.91
2023-10-20T22:23:51.098Z,95793.53
2023-10-20T22:26:41.067Z,95801.72
2023-10-20T22:29:30.700Z,95812.75
2023-10-20T22:32:18.229Z,95815.84
2023-10-20T22:35:07.036Z,95829.59
2023-10-20T22:37:54.675Z,95825.31
2023-10-20T22:40:42.673Z,95834.28
2023-10-20T22:43:30.291Z,95818.94
2023-10-20T22:46:19.238Z,95807.72
2023-10-20T22:49:06.995Z,95837.69
2023-10-20T22:51:54.625Z,95845.09
2023-10-20T22:54:42.347Z,95845.09
2023-10-20T22:57:30.672Z,95861.19
2023-10-20T23:00:18.664Z,95856.03
2023-10-20T23:03:07.793Z,95865.81
2023-10-20T23:05:55.657Z,95860.16
2023-10-20T23:08:43.243Z,95877.78
2023-10-20T23:11:30.721Z,95880.59
2023-10-20T23:14:18.204Z,95875.06
2023-10-20T23:17:05.868Z,95886.97
2023-10-20T23:19:55.116Z,95884.91
2023-10-20T23:22:42.693Z,95883.03
2023-10-20T23:25:30.297Z,95874.69
2023-10-20T23:28:18.238Z,95879.81
2023-10-20T23:31:05.950Z,95897.16
2023-10-20T23:33:53.959Z,95889.63
2023-10-20T23:36:43.228Z,95901.22
2023-10-20T23:39:34.049Z,95903.44
2023-10-20T23:42:22.164Z,95910.16
2023-10-20T23:45:10.448Z,95921.84
2023-10-20T23:47:58.026Z,95925.69
2023-10-20T23:50:45.573Z,95914.47
2023-10-20T23:53:34.702Z,95918.09
2023-10-20T23:56:22.264Z,95924.25
2023-10-20T23:59:09.876Z,95915.66
